createdAt,value
2022-12-03T00:02:11.940Z,30.47
2022-12-03T00:04:52.237Z,30.39
2022-12-03T00:07:26.215Z,29.44
2022-12-03T00:20:56.910Z,29.63
2022-12-03T00:23:41.735Z,29.18
2022-12-03T00:26:15.125Z,31.98
2022-12-03T00:28:47.952Z,29.38
2022-12-03T00:31:21.452Z,30.34
2022-12-03T00:33:54.926Z,29.78
2022-12-03T00:36:30.157Z,30.13
2022-12-03T00:49:17.977Z,29.87
2022-12-03T00:51:59.953Z,29.88
2022-12-03T00:54:33.120Z,30.39
2022-12-03T00:56:59.810Z,29.69
2022-12-03T00:59:42.997Z,29.19
2022-12-03T01:02:16.200Z,29.14
2022-12-03T01:15:06.909Z,29.54
2022-12-03T01:17:46.924Z,29.02
2022-12-03T01:20:20.431Z,29.10
2022-12-03T01:22:53.968Z,29.07
2022-12-03T01:25:27.452Z,29.02
2022-12-03T01:43:44.903Z,27.51
2022-12-03T01:46:28.983Z,28.06
2022-12-03T01:49:02.313Z,27.45
2022-12-03T01:51:35.914Z,28.15
2022-12-03T01:54:17.772Z,27.37
2022-12-03T01:56:57.935Z,26.76
2022-12-03T02:10:11.934Z,25.32
2022-12-03T02:12:51.889Z,25.42
2022-12-03T02:15:33.001Z,24.17
2022-12-03T02:18:08.661Z,23.46
2022-12-03T03:12:04.940Z,23.12
2022-12-03T03:14:38.756Z,23.84
2022-12-03T03:17:13.152Z,23.13
2022-12-03T03:30:25.004Z,23.66
2022-12-03T03:32:58.481Z,23.43
2022-12-03T03:35:31.893Z,23.22
2022-12-03T03:38:07.175Z,22.51
2022-12-03T03:40:40.922Z,22.98
2022-12-03T03:57:17.932Z,22.61
2022-12-03T03:59:57.904Z,23.56
2022-12-03T04:02:33.464Z,23.22
2022-12-03T04:05:06.893Z,22.70
2022-12-03T04:07:40.183Z,21.79
2022-12-03T04:10:14.904Z,22.42
2022-12-03T04:23:30.898Z,22.52
2022-12-03T04:26:04.322Z,22.72
2022-12-03T04:28:37.900Z,22.26
2022-12-03T04:31:11.119Z,22.84
2022-12-03T04:33:37.818Z,22.66
2022-12-03T04:36:17.924Z,22.69
2022-12-03T04:49:29.902Z,24.11
2022-12-03T04:52:03.588Z,24.12
2022-12-03T04:54:44.968Z,24.33
2022-12-03T04:57:18.190Z,23.88
2022-12-03T04:59:51.902Z,24.65
2022-12-03T05:02:25.203Z,23.94
2022-12-03T05:15:16.868Z,25.55
2022-12-03T05:17:57.060Z,26.35
2022-12-03T05:20:30.096Z,25.89
2022-12-03T05:22:56.843Z,26.28
2022-12-03T05:25:36.893Z,26.27
2022-12-03T05:28:10.248Z,26.42
2022-12-03T05:30:45.957Z,26.63
2022-12-03T05:43:55.892Z,26.76
2022-12-03T05:46:31.435Z,28.35
2022-12-03T05:49:04.879Z,27.88
2022-12-03T05:51:38.124Z,27.60
2022-12-03T05:54:11.902Z,28.16
2022-12-03T05:56:45.117Z,28.04
2022-12-03T06:09:34.845Z,29.19
2022-12-03T06:12:14.858Z,28.25
2022-12-03T06:14:49.208Z,28.62
2022-12-03T06:17:22.876Z,29.50
2022-12-03T06:20:02.366Z,29.93
2022-12-03T06:22:43.929Z,28.58
2022-12-03T06:36:02.896Z,29.77
2022-12-03T06:38:36.073Z,29.64
2022-12-03T06:41:02.826Z,30.16
2022-12-03T06:43:42.914Z,30.14
2022-12-03T06:46:16.206Z,31.04
2022-12-03T06:48:49.884Z,29.52
2022-12-03T06:51:25.156Z,30.28
2022-12-03T07:04:12.834Z,32.15
2022-12-03T07:06:54.886Z,31.84
2022-12-03T07:09:28.148Z,31.86
2022-12-03T07:12:01.893Z,32.97
2022-12-03T07:14:35.144Z,31.44
2022-12-03T07:17:08.873Z,31.03
2022-12-03T07:30:22.845Z,30.95
2022-12-03T07:32:57.045Z,30.95
2022-12-03T07:35:29.870Z,31.86
2022-12-03T07:38:03.076Z,34.05
2022-12-03T07:40:29.808Z,34.62
2022-12-03T07:57:01.351Z,33.43
2022-12-03T07:59:35.119Z,33.61
2022-12-03T08:02:08.860Z,34.93
2022-12-03T08:04:42.053Z,35.04
2022-12-03T08:07:08.734Z,34.89
2022-12-03T08:09:49.934Z,34.20
2022-12-03T08:12:28.416Z,35.81
2022-12-03T08:22:28.893Z,35.32
2022-12-03T08:25:02.182Z,37.16
2022-12-03T08:27:38.577Z,36.56
2022-12-03T08:30:15.174Z,37.61
2022-12-03T08:32:49.853Z,36.66
2022-12-03T08:35:25.828Z,37.44
2022-12-03T08:51:10.879Z,38.52
2022-12-03T08:53:48.360Z,36.86
2022-12-03T08:56:30.868Z,38.15
2022-12-03T08:59:25.464Z,37.00
2022-12-03T09:02:05.869Z,35.34
2022-12-03T09:16:00.841Z,37.08
2022-12-03T09:18:36.055Z,35.43
2022-12-03T09:21:09.831Z,35.63
2022-12-03T09:23:43.190Z,34.19
2022-12-03T09:26:16.848Z,35.56
2022-12-03T09:28:50.296Z,35.09
2022-12-03T09:31:24.583Z,34.55
2022-12-03T09:44:40.824Z,35.16
2022-12-03T09:47:14.153Z,35.27
2022-12-03T09:49:47.883Z,35.22
2022-12-03T09:52:26.925Z,34.76
2022-12-03T09:55:27.903Z,35.19
2022-12-03T09:58:02.188Z,34.96
2022-12-03T10:10:54.856Z,36.51
2022-12-03T10:13:37.832Z,36.61
2022-12-03T10:16:16.331Z,36.04
2022-12-03T10:19:00.821Z,37.12
2022-12-03T10:21:37.756Z,37.01
2022-12-03T10:38:08.835Z,39.62
2022-12-03T10:40:42.092Z,39.58
2022-12-03T10:43:21.843Z,39.22
2022-12-03T10:46:15.513Z,40.67
2022-12-03T10:49:14.844Z,42.02
2022-12-03T10:51:48.684Z,41.65
2022-12-03T11:04:41.786Z,42.02
2022-12-03T11:07:24.883Z,43.25
2022-12-03T11:09:58.143Z,44.42
2022-12-03T11:12:34.827Z,43.37
2022-12-03T11:15:15.590Z,42.64
2022-12-03T11:17:56.842Z,44.04
2022-12-03T11:31:11.917Z,42.68
2022-12-03T11:33:45.041Z,42.82
2022-12-03T11:36:47.705Z,42.76
2022-12-03T11:40:19.664Z,42.16
2022-12-03T11:43:04.800Z,43.75
2022-12-03T11:56:35.826Z,44.68
2022-12-03T11:59:12.688Z,46.20
2022-12-03T12:01:52.823Z,44.84
2022-12-03T12:04:30.459Z,45.81
2022-12-03T12:07:10.836Z,45.79
2022-12-03T12:09:53.694Z,45.18
2022-12-03T12:12:54.651Z,48.01
2022-12-03T12:23:26.767Z,47.51
2022-12-03T12:26:11.800Z,47.44
2022-12-03T12:28:47.069Z,47.94
2022-12-03T12:31:19.905Z,47.80
2022-12-03T12:33:53.455Z,49.20
2022-12-03T12:36:27.502Z,47.75
2022-12-03T12:50:03.887Z,47.23
2022-12-03T12:52:47.744Z,47.22
2022-12-03T12:55:29.788Z,45.43
2022-12-03T12:58:11.833Z,46.51
2022-12-03T13:00:57.910Z,46.79
2022-12-03T13:03:41.385Z,47.07
2022-12-03T13:06:26.862Z,46.76
2022-12-03T13:16:46.859Z,48.91
2022-12-03T13:19:29.821Z,46.67
2022-12-03T13:22:15.603Z,48.32
2022-12-03T13:24:58.792Z,51.59
2022-12-03T13:27:31.998Z,48.17
2022-12-03T13:30:09.797Z,49.90
2022-12-03T13:32:44.009Z,48.89
2022-12-03T13:45:44.812Z,48.86
2022-12-03T13:48:30.811Z,49.11
2022-12-03T13:51:26.673Z,49.36
2022-12-03T13:54:09.332Z,48.79
2022-12-03T13:56:45.003Z,48.71
2022-12-03T14:10:19.761Z,49.55
2022-12-03T14:13:01.784Z,49.46
2022-12-03T14:15:35.000Z,49.70
2022-12-03T14:18:08.791Z,50.67
2022-12-03T14:20:42.057Z,49.65
2022-12-03T14:23:08.724Z,49.12
2022-12-03T14:25:48.802Z,48.89
2022-12-03T14:39:00.823Z,47.91
2022-12-03T14:41:34.572Z,47.91
2022-12-03T14:44:08.516Z,50.65
2022-12-03T14:46:41.972Z,50.19
2022-12-03T14:49:14.778Z,49.23
2022-12-03T14:51:48.016Z,47.34
2022-12-03T15:04:37.742Z,48.82
2022-12-03T15:07:17.811Z,48.85
2022-12-03T15:09:51.091Z,49.99
2022-12-03T15:12:24.777Z,47.85
2022-12-03T15:14:57.976Z,47.93
2022-12-03T15:17:31.211Z,49.40
2022-12-03T15:30:37.734Z,50.23
2022-12-03T15:33:17.853Z,48.93
2022-12-03T15:35:51.485Z,50.01
2022-12-03T15:38:24.749Z,48.01
2022-12-03T15:40:57.969Z,49.90
2022-12-03T15:43:24.645Z,49.03
2022-12-03T15:46:08.623Z,51.03
2022-12-03T15:59:18.770Z,52.11
2022-12-03T16:01:54.188Z,49.73
2022-12-03T16:04:27.769Z,49.91
2022-12-03T16:07:01.055Z,48.99
2022-12-03T16:09:34.772Z,49.53
2022-12-03T16:12:07.941Z,49.39
2022-12-03T16:24:57.805Z,49.06
2022-12-03T16:27:37.779Z,50.40
2022-12-03T16:30:12.553Z,51.68
2022-12-03T16:32:45.761Z,50.75
2022-12-03T16:35:19.115Z,51.70
2022-12-03T16:37:52.785Z,49.95
2022-12-03T16:51:05.461Z,53.13
2022-12-03T16:53:38.952Z,52.76
2022-12-03T16:56:12.745Z,55.98
2022-12-03T16:58:46.432Z,54.29
2022-12-03T17:01:19.825Z,53.77
2022-12-03T17:03:53.415Z,54.15
2022-12-03T17:06:28.760Z,53.19
2022-12-03T17:19:38.764Z,49.77
2022-12-03T17:22:14.156Z,51.23
2022-12-03T17:24:49.753Z,49.63
2022-12-03T17:27:23.096Z,50.23
2022-12-03T17:29:57.037Z,49.46
2022-12-03T17:32:30.043Z,49.22
2022-12-03T17:45:26.717Z,48.27
2022-12-03T17:48:06.749Z,47.10
2022-12-03T17:50:42.992Z,47.87
2022-12-03T17:53:16.453Z,47.43
2022-12-03T17:55:49.981Z,46.76
2022-12-03T18:12:04.742Z,45.13
2022-12-03T18:14:37.921Z,47.06
2022-12-03T18:17:04.602Z,48.74
2022-12-03T18:19:44.736Z,44.89
2022-12-03T18:22:18.373Z,45.92
2022-12-03T18:24:52.224Z,47.96
2022-12-03T18:27:27.909Z,47.45
2022-12-03T18:40:24.706Z,47.86
2022-12-03T18:43:06.768Z,47.97
2022-12-03T18:45:40.758Z,46.31
2022-12-03T18:48:18.734Z,44.85
2022-12-03T18:50:51.932Z,47.04
2022-12-03T19:07:03.730Z,47.11
2022-12-03T19:09:30.537Z,46.07
2022-12-03T19:12:14.739Z,46.93
2022-12-03T19:14:48.033Z,46.08
2022-12-03T19:17:21.810Z,45.02
2022-12-03T19:31:16.800Z,49.18
2022-12-03T19:33:51.962Z,48.02
2022-12-03T19:36:27.742Z,46.90
2022-12-03T19:39:01.113Z,47.65
2022-12-03T19:41:35.728Z,50.08
2022-12-03T19:44:12.265Z,49.79
2022-12-03T19:46:54.746Z,52.99
2022-12-03T20:00:07.412Z,51.59
2022-12-03T20:02:41.189Z,52.57
2022-12-03T20:05:15.569Z,50.64
2022-12-03T20:07:49.042Z,53.17
2022-12-03T20:10:22.706Z,53.47
2022-12-03T20:12:56.022Z,50.93
2022-12-03T20:25:45.748Z,54.52
2022-12-03T20:28:25.724Z,55.33
2022-12-03T20:30:59.146Z,55.51
2022-12-03T20:33:32.734Z,57.80
2022-12-03T20:36:07.825Z,57.07
2022-12-03T20:52:22.718Z,56.13
2022-12-03T20:54:55.952Z,55.74
2022-12-03T20:57:22.658Z,54.64
2022-12-03T21:00:02.729Z,55.16
2022-12-03T21:02:36.792Z,55.32
2022-12-03T21:05:12.776Z,54.81
2022-12-03T21:07:48.863Z,55.83
2022-12-03T21:20:36.672Z,56.67
2022-12-03T21:23:19.758Z,54.37
2022-12-03T21:25:52.961Z,54.92
2022-12-03T21:28:26.759Z,52.15
2022-12-03T21:31:02.201Z,53.95
2022-12-03T21:47:17.786Z,55.69
2022-12-03T21:49:50.968Z,55.01
2022-12-03T21:52:17.669Z,56.15
2022-12-03T21:54:58.680Z,57.72
2022-12-03T21:57:35.497Z,55.13
2022-12-03T22:13:57.704Z,55.81
2022-12-03T22:16:31.076Z,53.21
2022-12-03T22:19:04.696Z,53.82
2022-12-03T22:21:37.886Z,54.16
2022-12-03T22:24:12.689Z,53.28
2022-12-03T22:26:46.077Z,56.55
2022-12-03T22:39:36.652Z,55.15
2022-12-03T22:42:16.700Z,52.72
2022-12-03T22:44:49.957Z,56.82
2022-12-03T22:47:23.701Z,55.28
2022-12-03T22:49:57.276Z,54.55
2022-12-03T22:52:46.698Z,54.94
2022-12-03T23:05:58.665Z,58.91
2022-12-03T23:08:31.850Z,58.15
2022-12-03T23:11:07.372Z,57.50
2022-12-03T23:13:41.336Z,59.77
2022-12-03T23:16:21.721Z,58.73
2022-12-03T23:18:57.377Z,59.78
2022-12-03T23:21:35.721Z,59.40
2022-12-03T23:32:05.642Z,60.20
2022-12-03T23:34:45.735Z,60.53
2022-12-03T23:37:21.112Z,60.54
2022-12-03T23:39:55.937Z,59.73
2022-12-03T23:42:28.949Z,58.95
2022-12-03T23:45:02.681Z,59.75
2022-12-03T23:47:35.857Z,59.93
